createdAt,value
2017-08-06T00:00:40.026Z,15.98
2017-08-06T00:01:50.311Z,16.03
2017-08-06T00:03:00.824Z,15.9
2017-08-06T00:04:11.106Z,15.96
2017-08-06T00:05:21.388Z,15.96
2017-08-06T00:06:31.360Z,15.99
2017-08-06T00:07:41.331Z,15.98
2017-08-06T00:08:51.244Z,15.98
2017-08-06T00:10:01.524Z,15.92
2017-08-06T00:11:11.811Z,15.84
2017-08-06T00:12:22.101Z,15.84
2017-08-06T00:13:32.388Z,15.92
2017-08-06T00:14:42.909Z,15.83
2017-08-06T00:15:52.571Z,15.85
2017-08-06T00:17:02.549Z,15.84
2017-08-06T00:18:12.196Z,15.76
2017-08-06T00:19:22.187Z,15.75
2017-08-06T00:20:32.707Z,15.8
2017-08-06T00:21:42.990Z,15.73
2017-08-06T00:22:52.970Z,15.76
2017-08-06T00:24:02.948Z,15.85
2017-08-06T00:25:13.225Z,15.85
2017-08-06T00:26:23.771Z,15.76
2017-08-06T00:27:33.731Z,15.88
2017-08-06T00:28:43.693Z,15.88
2017-08-06T00:29:53.972Z,15.85
2017-08-06T00:31:04.266Z,15.9
2017-08-06T00:32:14.809Z,15.85
2017-08-06T00:33:25.103Z,15.92
2017-08-06T00:34:35.380Z,15.94
2017-08-06T00:35:45.668Z,15.85
2017-08-06T00:36:55.637Z,15.92
2017-08-06T00:38:06.168Z,15.96
2017-08-06T00:39:16.461Z,15.96
2017-08-06T00:40:26.426Z,15.99
2017-08-06T00:41:36.714Z,15.92
2017-08-06T00:42:46.664Z,16
2017-08-06T00:43:56.904Z,15.85
2017-08-06T00:45:06.569Z,15.94
2017-08-06T00:46:16.875Z,15.96
2017-08-06T00:47:27.167Z,15.99
2017-08-06T00:48:37.144Z,15.98
2017-08-06T00:49:47.676Z,15.99
2017-08-06T00:50:57.947Z,15.98
2017-08-06T00:52:07.927Z,16.05
2017-08-06T00:53:18.212Z,16.02
2017-08-06T00:54:28.503Z,16
2017-08-06T00:55:39.030Z,16
2017-08-06T00:56:49.335Z,16.02
2017-08-06T00:57:59.288Z,16
2017-08-06T00:59:08.947Z,16.03
2017-08-06T01:00:19.219Z,15.98
2017-08-06T01:01:29.138Z,16.03
2017-08-06T01:02:39.436Z,16.05
2017-08-06T01:03:49.404Z,16.06
2017-08-06T01:04:59.372Z,16.05
2017-08-06T01:06:09.360Z,16.03
2017-08-06T01:07:19.267Z,16
2017-08-06T01:08:29.225Z,16.09
2017-08-06T01:09:39.201Z,16.12
2017-08-06T01:10:49.169Z,16.09
2017-08-06T01:11:59.467Z,16.25
2017-08-06T01:13:09.681Z,16.17
2017-08-06T01:14:19.966Z,16.13
2017-08-06T01:15:30.247Z,16.21
2017-08-06T01:16:40.511Z,16.22
2017-08-06T01:17:50.165Z,16.24
2017-08-06T01:19:00.380Z,16.24
2017-08-06T01:20:10.647Z,16.21
2017-08-06T01:21:20.632Z,16.24
2017-08-06T01:22:30.904Z,16.24
2017-08-06T01:23:40.874Z,16.26
2017-08-06T01:24:51.092Z,16.24
2017-08-06T01:26:01.073Z,16.24
2017-08-06T01:27:11.351Z,16.26
2017-08-06T01:28:21.635Z,16.39
2017-08-06T01:29:31.904Z,16.34
2017-08-06T01:30:42.422Z,16.31
2017-08-06T01:31:52.386Z,16.36
2017-08-06T01:33:02.678Z,16.36
2017-08-06T01:34:12.643Z,16.39
2017-08-06T01:35:22.914Z,16.31
2017-08-06T01:36:33.430Z,16.36
2017-08-06T01:37:43.394Z,16.37
2017-08-06T01:38:53.357Z,16.37
2017-08-06T01:40:03.634Z,16.31
2017-08-06T01:41:13.901Z,16.39
2017-08-06T01:42:24.131Z,16.36
2017-08-06T01:43:34.403Z,16.34
2017-08-06T01:44:44.685Z,16.32
2017-08-06T01:45:54.663Z,16.31
2017-08-06T01:47:04.950Z,16.34
2017-08-06T01:48:15.166Z,16.31
2017-08-06T01:49:25.432Z,16.32
2017-08-06T01:50:35.712Z,16.34
2017-08-06T01:51:45.679Z,16.31
2017-08-06T01:52:55.970Z,16.29
2017-08-06T01:54:06.490Z,16.31
2017-08-06T01:55:16.772Z,16.26
2017-08-06T01:56:27.059Z,16.29
2017-08-06T01:57:37.328Z,16.31
2017-08-06T01:58:47.590Z,16.32
2017-08-06T01:59:58.145Z,16.28
2017-08-06T02:01:08.421Z,16.31
2017-08-06T02:02:18.705Z,16.28
2017-08-06T02:03:28.688Z,16.18
2017-08-06T02:04:38.661Z,16.25
2017-08-06T02:05:49.196Z,16.25
2017-08-06T02:06:59.473Z,16.25
2017-08-06T02:08:09.471Z,16.22
2017-08-06T02:09:19.132Z,16.18
2017-08-06T02:10:29.423Z,16.24
2017-08-06T02:11:39.643Z,16.26
2017-08-06T02:12:49.937Z,16.18
2017-08-06T02:14:00.234Z,16.12
2017-08-06T02:15:10.500Z,16.24
2017-08-06T02:16:20.776Z,16.17
2017-08-06T02:17:30.689Z,16.16
2017-08-06T02:18:40.371Z,16.17
2017-08-06T02:19:50.651Z,16.03
2017-08-06T02:21:00.635Z,16.09
2017-08-06T02:22:10.923Z,16.06
2017-08-06T02:23:21.471Z,16.02
2017-08-06T02:24:31.765Z,16.02
2017-08-06T02:25:41.734Z,16.06
2017-08-06T02:26:52.019Z,16.02
2017-08-06T02:28:01.996Z,15.91
2017-08-06T02:29:12.544Z,16.03
2017-08-06T02:30:22.187Z,16.02
2017-08-06T02:31:32.473Z,15.98
2017-08-06T02:32:42.753Z,16.02
2017-08-06T02:33:52.429Z,15.94
2017-08-06T02:35:02.959Z,15.81
2017-08-06T02:36:12.932Z,15.91
2017-08-06T02:37:23.227Z,15.87
2017-08-06T02:38:32.879Z,15.85
2017-08-06T02:39:42.860Z,15.76
2017-08-06T02:40:52.777Z,15.84
2017-08-06T02:42:03.053Z,15.81
2017-08-06T02:43:13.340Z,15.75
2017-08-06T02:44:23.623Z,15.75
2017-08-06T02:45:33.892Z,15.72
2017-08-06T02:46:44.110Z,15.72
2017-08-06T02:47:54.087Z,15.67
2017-08-06T02:49:04.374Z,15.65
2017-08-06T02:50:14.349Z,15.66
2017-08-06T02:51:23.708Z,15.62
2017-08-06T02:52:34.285Z,15.62
2017-08-06T02:53:44.566Z,15.57
2017-08-06T02:54:54.840Z,15.6
2017-08-06T02:56:05.127Z,15.51
2017-08-06T02:57:15.404Z,15.51
2017-08-06T02:58:25.364Z,15.45
2017-08-06T02:59:35.321Z,15.43
2017-08-06T03:00:45.603Z,15.37
2017-08-06T03:01:55.879Z,15.41
2017-08-06T03:03:05.547Z,15.44
2017-08-06T03:04:15.885Z,15.45
2017-08-06T03:05:26.188Z,15.33
2017-08-06T03:06:36.470Z,15.36
2017-08-06T03:07:46.748Z,15.39
2017-08-06T03:08:56.709Z,15.35
2017-08-06T03:10:06.628Z,15.37
2017-08-06T03:11:16.908Z,15.39
2017-08-06T03:12:27.212Z,15.37
2017-08-06T03:13:37.500Z,15.29
2017-08-06T03:14:47.459Z,15.3
2017-08-06T03:15:58.026Z,15.19
2017-08-06T03:17:07.981Z,15.29
2017-08-06T03:18:17.958Z,15.15
2017-08-06T03:19:28.247Z,15.18
2017-08-06T03:20:38.533Z,15.17
2017-08-06T03:21:48.767Z,15.25
2017-08-06T03:22:59.045Z,15.15
2017-08-06T03:24:09.341Z,15.12
2017-08-06T03:25:19.306Z,15.1
2017-08-06T03:26:29.265Z,15.08
2017-08-06T03:27:39.850Z,15.11
2017-08-06T03:28:50.165Z,15.12
2017-08-06T03:30:00.441Z,15.04
2017-08-06T03:31:10.124Z,15.04
2017-08-06T03:32:20.086Z,15
2017-08-06T03:33:30.342Z,14.99
2017-08-06T03:34:40.304Z,14.99
2017-08-06T03:35:50.596Z,15
2017-08-06T03:37:00.250Z,15
2017-08-06T03:38:10.223Z,14.93
2017-08-06T03:39:20.805Z,14.97
2017-08-06T03:40:31.177Z,14.9
2017-08-06T03:41:41.466Z,14.97
2017-08-06T03:42:51.739Z,14.86
2017-08-06T03:44:01.399Z,14.87
2017-08-06T03:45:11.915Z,14.86
2017-08-06T03:46:22.178Z,14.92
2017-08-06T03:47:32.447Z,14.9
2017-08-06T03:48:42.725Z,14.9
2017-08-06T03:49:52.704Z,14.9
2017-08-06T03:51:02.967Z,14.92
2017-08-06T03:52:13.234Z,14.9
2017-08-06T03:53:23.518Z,14.87
2017-08-06T03:54:33.175Z,14.9
2017-08-06T03:55:43.451Z,14.82
2017-08-06T03:56:54.030Z,14.87
2017-08-06T03:58:04.305Z,14.86
2017-08-06T03:59:14.573Z,14.87
2017-08-06T04:00:24.234Z,14.92
2017-08-06T04:01:34.202Z,14.87
2017-08-06T04:02:44.782Z,14.92
2017-08-06T04:03:54.769Z,14.9
2017-08-06T04:05:04.747Z,14.92
2017-08-06T04:06:14.708Z,14.94
2017-08-06T04:07:24.676Z,14.93
2017-08-06T04:08:35.253Z,14.96
2017-08-06T04:09:45.206Z,15.05
2017-08-06T04:10:55.491Z,15.04
2017-08-06T04:12:05.457Z,15.02
2017-08-06T04:13:15.430Z,15.05
2017-08-06T04:14:26.004Z,15.05
2017-08-06T04:15:36.276Z,14.97
2017-08-06T04:16:46.543Z,14.99
2017-08-06T04:17:56.816Z,15
2017-08-06T04:19:07.084Z,15.04
2017-08-06T04:20:17.311Z,15.08
2017-08-06T04:21:27.591Z,15.04
2017-08-06T04:22:37.866Z,15.04
2017-08-06T04:23:48.152Z,15.04
2017-08-06T04:24:58.114Z,14.93
2017-08-06T04:26:08.651Z,14.93
2017-08-06T04:27:18.933Z,14.9
2017-08-06T04:28:29.196Z,14.93
2017-08-06T04:29:39.164Z,14.86
2017-08-06T04:30:49.448Z,14.85
2017-08-06T04:32:00.096Z,14.93
2017-08-06T04:33:09.768Z,14.9
2017-08-06T04:34:19.750Z,14.89
2017-08-06T04:35:29.402Z,14.96
2017-08-06T04:36:39.708Z,14.93
2017-08-06T04:37:50.252Z,14.93
2017-08-06T04:39:00.232Z,14.9
2017-08-06T04:40:10.512Z,14.86
2017-08-06T04:41:20.788Z,14.93
2017-08-06T04:42:30.777Z,14.93
2017-08-06T04:43:41.065Z,14.92
2017-08-06T04:44:51.351Z,14.89
2017-08-06T04:46:01.616Z,14.86
2017-08-06T04:47:11.603Z,14.89
2017-08-06T04:48:21.875Z,14.87
2017-08-06T04:49:32.080Z,14.9
2017-08-06T04:50:42.026Z,14.92
2017-08-06T04:51:52.309Z,14.89
2017-08-06T04:53:01.958Z,14.9
2017-08-06T04:54:12.228Z,14.94
2017-08-06T04:55:22.178Z,14.86
2017-08-06T04:56:32.153Z,14.99
2017-08-06T04:57:42.421Z,15.05
2017-08-06T04:58:52.391Z,14.87
2017-08-06T05:00:02.666Z,14.97
2017-08-06T05:01:12.571Z,15.02
2017-08-06T05:02:22.534Z,15
2017-08-06T05:03:32.813Z,15.04
2017-08-06T05:04:42.797Z,15.07
2017-08-06T05:05:53.062Z,14.96
2017-08-06T05:07:03.643Z,15.04
2017-08-06T05:08:13.603Z,15.05
2017-08-06T05:09:23.876Z,15.1
2017-08-06T05:10:33.858Z,15.14
2017-08-06T05:11:43.818Z,15.07
2017-08-06T05:12:54.397Z,15.08
2017-08-06T05:14:04.655Z,15.12
2017-08-06T05:15:14.623Z,15.15
2017-08-06T05:16:24.901Z,15.1
2017-08-06T05:17:34.888Z,15.14
2017-08-06T05:18:45.576Z,15.12
2017-08-06T05:19:55.847Z,15.17
2017-08-06T05:21:06.139Z,15.17
2017-08-06T05:22:16.106Z,15.12
2017-08-06T05:23:26.390Z,15.14
2017-08-06T05:24:36.623Z,15.18
2017-08-06T05:25:46.907Z,15.22
2017-08-06T05:26:57.179Z,15.25
2017-08-06T05:28:07.172Z,15.19
2017-08-06T05:29:17.466Z,15.19
2017-08-06T05:30:27.386Z,15.18
2017-08-06T05:31:37.672Z,15.26
2017-08-06T05:32:47.647Z,15.36
2017-08-06T05:33:57.611Z,15.37
2017-08-06T05:35:07.888Z,15.43
2017-08-06T05:36:18.156Z,15.36
2017-08-06T05:37:28.138Z,15.41
2017-08-06T05:38:38.422Z,15.43
2017-08-06T05:39:48.706Z,15.47
2017-08-06T05:40:58.992Z,15.45
2017-08-06T05:42:09.590Z,15.47
2017-08-06T05:43:19.551Z,15.47
2017-08-06T05:44:29.818Z,15.48
2017-08-06T05:45:40.077Z,15.43
2017-08-06T05:46:49.756Z,15.45
2017-08-06T05:48:00.279Z,15.5
2017-08-06T05:49:10.254Z,15.5
2017-08-06T05:50:20.226Z,15.55
2017-08-06T05:51:30.512Z,15.65
2017-08-06T05:52:40.475Z,15.66
2017-08-06T05:53:50.815Z,15.66
2017-08-06T05:55:01.084Z,15.69
2017-08-06T05:56:11.371Z,15.67
2017-08-06T05:57:21.666Z,15.72
2017-08-06T05:58:31.325Z,15.7
2017-08-06T05:59:41.905Z,15.76
2017-08-06T06:00:51.877Z,15.76
2017-08-06T06:02:02.161Z,15.73
2017-08-06T06:03:12.128Z,15.73
2017-08-06T06:04:22.398Z,15.75
2017-08-06T06:05:32.620Z,15.88
2017-08-06T06:06:42.899Z,15.85
2017-08-06T06:07:52.858Z,15.85
2017-08-06T06:09:03.148Z,15.85
2017-08-06T06:10:13.417Z,15.99
2017-08-06T06:11:23.996Z,16.06
2017-08-06T06:12:33.965Z,15.92
2017-08-06T06:13:44.247Z,16
2017-08-06T06:14:54.545Z,15.92
2017-08-06T06:16:04.517Z,15.98
2017-08-06T06:17:15.080Z,16.02
2017-08-06T06:18:25.358Z,15.94
2017-08-06T06:19:35.327Z,16.03
2017-08-06T06:20:45.612Z,16.08
2017-08-06T06:21:55.896Z,16.02
2017-08-06T06:23:06.432Z,16
2017-08-06T06:24:16.399Z,16.06
2017-08-06T06:25:26.688Z,15.92
2017-08-06T06:26:36.659Z,16
2017-08-06T06:27:46.933Z,16.05
2017-08-06T06:28:57.157Z,16.1
2017-08-06T06:30:07.449Z,16.1
2017-08-06T06:31:17.448Z,16.21
2017-08-06T06:32:27.717Z,16.21
2017-08-06T06:33:38.006Z,16.28
2017-08-06T06:34:48.530Z,16.21
2017-08-06T06:35:58.516Z,16.26
2017-08-06T06:37:08.820Z,16.16
2017-08-06T06:38:19.103Z,16.29
2017-08-06T06:39:28.765Z,16.36
2017-08-06T06:40:39.352Z,16.26
2017-08-06T06:41:49.319Z,16.28
2017-08-06T06:42:59.600Z,16.34
2017-08-06T06:44:09.592Z,16.43
2017-08-06T06:45:19.868Z,16.4
2017-08-06T06:46:30.395Z,16.51
2017-08-06T06:47:40.692Z,16.5
2017-08-06T06:48:50.660Z,16.5
2017-08-06T06:50:00.628Z,16.5
2017-08-06T06:51:10.893Z,16.46
2017-08-06T06:52:21.422Z,16.44
2017-08-06T06:53:31.723Z,16.46
2017-08-06T06:54:42.002Z,16.44
2017-08-06T06:55:51.970Z,16.47
2017-08-06T06:57:02.308Z,16.43
2017-08-06T06:58:12.835Z,16.47
2017-08-06T06:59:23.110Z,16.49
2017-08-06T07:00:33.073Z,16.46
2017-08-06T07:01:43.039Z,16.54
2017-08-06T07:02:53.009Z,16.58
2017-08-06T07:04:03.270Z,16.47
2017-08-06T07:05:13.232Z,16.49
2017-08-06T07:06:23.515Z,16.55
2017-08-06T07:07:33.505Z,16.68
2017-08-06T07:08:43.776Z,16.68
2017-08-06T07:09:54.309Z,16.66
2017-08-06T07:11:04.576Z,16.73
2017-08-06T07:12:14.539Z,16.73
2017-08-06T07:13:24.512Z,16.79
2017-08-06T07:14:34.481Z,16.65
2017-08-06T07:15:44.751Z,16.55
2017-08-06T07:16:54.738Z,16.62
2017-08-06T07:18:04.728Z,16.77
2017-08-06T07:19:15.003Z,16.74
2017-08-06T07:20:25.268Z,16.76
2017-08-06T07:21:35.841Z,16.76
2017-08-06T07:22:45.508Z,16.86
2017-08-06T07:23:55.467Z,16.72
2017-08-06T07:25:05.754Z,16.73
2017-08-06T07:26:15.728Z,16.8
2017-08-06T07:27:26.005Z,16.79
2017-08-06T07:28:35.337Z,16.84
2017-08-06T07:29:45.606Z,16.87
2017-08-06T07:30:55.878Z,16.86
2017-08-06T07:32:05.856Z,16.82
2017-08-06T07:33:16.398Z,16.95
2017-08-06T07:34:26.378Z,17.09
2017-08-06T07:35:36.048Z,17.05
2017-08-06T07:36:46.017Z,17.1
2017-08-06T07:37:56.308Z,17.19
2017-08-06T07:39:06.583Z,17.04
2017-08-06T07:40:16.547Z,17.05
2017-08-06T07:41:26.513Z,17.04
2017-08-06T07:42:36.476Z,17.12
2017-08-06T07:43:46.439Z,17.24
2017-08-06T07:44:56.665Z,17.31
2017-08-06T07:46:06.972Z,17.35
2017-08-06T07:47:16.963Z,17.5
2017-08-06T07:48:27.261Z,17.34
2017-08-06T07:49:37.534Z,17.39
2017-08-06T07:50:47.740Z,17.35
2017-08-06T07:51:58.032Z,17.27
2017-08-06T07:53:08.292Z,17.35
2017-08-06T07:54:18.259Z,17.34
2017-08-06T07:55:28.245Z,17.3
2017-08-06T07:56:38.786Z,17.24
2017-08-06T07:57:49.066Z,17.27
2017-08-06T07:58:59.357Z,17.42
2017-08-06T08:00:09.340Z,17.42
2017-08-06T08:01:19.631Z,17.37
2017-08-06T08:02:30.204Z,17.44
2017-08-06T08:03:40.188Z,17.52
2017-08-06T08:04:50.467Z,17.47
2017-08-06T08:06:00.749Z,17.52
2017-08-06T08:07:10.733Z,17.56
2017-08-06T08:08:21.269Z,17.34
2017-08-06T08:09:31.236Z,17.39
2017-08-06T08:10:41.517Z,17.52
2017-08-06T08:11:51.785Z,17.47
2017-08-06T08:13:02.081Z,17.5
2017-08-06T08:14:12.621Z,17.72
2017-08-06T08:15:22.902Z,17.6
2017-08-06T08:16:33.164Z,17.65
2017-08-06T08:17:43.430Z,17.65
2017-08-06T08:18:53.704Z,17.63
2017-08-06T08:20:04.277Z,17.68
2017-08-06T08:21:14.548Z,17.72
2017-08-06T08:22:24.828Z,17.65
2017-08-06T08:23:34.480Z,17.75
2017-08-06T08:24:44.771Z,17.87
2017-08-06T08:25:55.321Z,17.91
2017-08-06T08:27:05.611Z,18.03
2017-08-06T08:28:15.263Z,18.03
2017-08-06T08:29:25.537Z,18.16
2017-08-06T08:30:35.844Z,18.15
2017-08-06T08:31:46.431Z,18.11
2017-08-06T08:32:56.392Z,18.16
2017-08-06T08:34:06.664Z,18.37
2017-08-06T08:35:16.953Z,18.41
2017-08-06T08:36:27.232Z,18.33
2017-08-06T08:37:37.818Z,18.33
2017-08-06T08:38:48.105Z,18.34
2017-08-06T08:39:58.406Z,18.68
2017-08-06T08:41:08.669Z,18.86
2017-08-06T08:42:18.651Z,19.08
2017-08-06T08:43:29.195Z,19.22
2017-08-06T08:44:39.483Z,19.22
2017-08-06T08:45:49.461Z,18.98
2017-08-06T08:46:59.738Z,18.94
2017-08-06T08:48:10.035Z,19.07
2017-08-06T08:49:20.614Z,19.22
2017-08-06T08:50:30.583Z,19.08
2017-08-06T08:51:40.893Z,19.17
2017-08-06T08:52:51.174Z,19.24
2017-08-06T08:54:01.457Z,19.29
2017-08-06T08:55:11.678Z,19.48
2017-08-06T08:56:21.667Z,19.39
2017-08-06T08:57:31.325Z,19.39
2017-08-06T08:58:41.308Z,19.55
2017-08-06T08:59:51.281Z,19.56
2017-08-06T09:01:01.590Z,19.6
2017-08-06T09:02:11.910Z,19.64
2017-08-06T09:03:21.579Z,19.7
2017-08-06T09:04:31.908Z,19.71
2017-08-06T09:05:42.190Z,19.75
2017-08-06T09:06:52.784Z,19.87
2017-08-06T09:08:02.461Z,19.94
2017-08-06T09:09:12.752Z,19.94
2017-08-06T09:10:23.072Z,20.12
2017-08-06T09:11:33.360Z,19.87
2017-08-06T09:12:43.352Z,20
2017-08-06T09:13:53.040Z,20.18
2017-08-06T09:15:03.004Z,20.42
2017-08-06T09:16:13.269Z,20.36
2017-08-06T09:17:23.574Z,20.18
2017-08-06T09:18:33.797Z,20.19
2017-08-06T09:19:43.463Z,20.02
2017-08-06T09:20:53.431Z,19.9
2017-08-06T09:22:03.724Z,19.92
2017-08-06T09:23:13.695Z,19.77
2017-08-06T09:24:24.743Z,19.85
2017-08-06T09:25:34.717Z,20.18
2017-08-06T09:26:44.721Z,20.44
2017-08-06T09:27:55.006Z,20.68
2017-08-06T09:29:05.015Z,20.78
2017-08-06T09:30:15.236Z,20.67
2017-08-06T09:31:25.516Z,20.5
2017-08-06T09:32:35.791Z,20.44
2017-08-06T09:33:46.094Z,20.26
2017-08-06T09:34:56.383Z,20.24
2017-08-06T09:36:06.622Z,20.22
2017-08-06T09:37:16.600Z,20.11
2017-08-06T09:38:26.908Z,20.07
2017-08-06T09:39:36.908Z,20.03
2017-08-06T09:40:46.881Z,20.14
2017-08-06T09:41:57.483Z,20.1
2017-08-06T09:43:07.775Z,20.21
2017-08-06T09:44:18.068Z,20.22
2017-08-06T09:45:28.059Z,20.32
2017-08-06T09:46:38.356Z,20.55
2017-08-06T09:47:48.892Z,20.86
2017-08-06T09:48:58.866Z,21.15
2017-08-06T09:50:09.158Z,21.2
2017-08-06T09:51:19.134Z,20.9
2017-08-06T09:52:29.426Z,20.77
2017-08-06T09:53:39.970Z,20.46
2017-08-06T09:54:49.970Z,20.67
2017-08-06T09:55:59.955Z,20.83
2017-08-06T09:57:09.616Z,20.98
2017-08-06T09:58:19.933Z,20.88
2017-08-06T09:59:30.151Z,20.8
2017-08-06T10:00:40.456Z,20.89
2017-08-06T10:01:50.423Z,20.92
2017-08-06T10:03:00.698Z,20.88
2017-08-06T10:04:10.992Z,20.92
2017-08-06T10:05:21.548Z,21
2017-08-06T10:06:31.838Z,21.22
2017-08-06T10:07:42.125Z,21.15
2017-08-06T10:08:52.251Z,21.19
2017-08-06T10:10:02.532Z,21.13
2017-08-06T10:11:13.135Z,21.14
2017-08-06T10:12:23.455Z,21.04
2017-08-06T10:13:33.449Z,20.93
2017-08-06T10:14:43.774Z,20.75
2017-08-06T10:15:54.079Z,20.9
2017-08-06T10:17:04.650Z,20.95
2017-08-06T10:18:14.950Z,21.2
2017-08-06T10:19:24.930Z,21.28
2017-08-06T10:20:34.611Z,21.2
2017-08-06T10:21:44.926Z,21
2017-08-06T10:22:55.185Z,20.9
2017-08-06T10:24:05.474Z,20.9
2017-08-06T10:25:15.469Z,20.64
2017-08-06T10:26:25.769Z,20.26
2017-08-06T10:27:35.770Z,20.1
2017-08-06T10:28:46.322Z,20.26
2017-08-06T10:29:56.607Z,20.44
2017-08-06T10:31:06.901Z,20.55
2017-08-06T10:32:16.858Z,20.8
2017-08-06T10:33:27.132Z,20.93
2017-08-06T10:34:37.356Z,21.01
2017-08-06T10:35:47.645Z,20.82
2017-08-06T10:36:57.623Z,20.88
2017-08-06T10:38:07.899Z,20.85
2017-08-06T10:39:18.177Z,20.89
2017-08-06T10:40:28.714Z,21.17
2017-08-06T10:41:39.024Z,21.14
2017-08-06T10:42:49.326Z,21.33
2017-08-06T10:43:59.631Z,21.54
2017-08-06T10:45:09.615Z,21.29
2017-08-06T10:46:20.179Z,21.4
2017-08-06T10:47:30.477Z,21.43
2017-08-06T10:48:40.800Z,21.15
2017-08-06T10:49:50.798Z,20.85
2017-08-06T10:51:01.118Z,20.77
2017-08-06T10:52:11.671Z,20.53
2017-08-06T10:53:21.640Z,20.46
2017-08-06T10:54:31.929Z,20.63
2017-08-06T10:55:42.222Z,20.75
2017-08-06T10:56:52.211Z,20.89
2017-08-06T10:58:02.439Z,21.05
2017-08-06T10:59:12.709Z,20.95
2017-08-06T11:00:22.374Z,20.73
2017-08-06T11:01:32.673Z,20.77
2017-08-06T11:02:42.659Z,20.71
2017-08-06T11:03:52.904Z,21.1
2017-08-06T11:05:03.192Z,21.38
2017-08-06T11:06:13.486Z,21.78
2017-08-06T11:07:23.779Z,22.16
2017-08-06T11:08:34.079Z,22.14
2017-08-06T11:09:44.350Z,22.34
2017-08-06T11:10:54.626Z,22.34
2017-08-06T11:12:04.916Z,22.25
2017-08-06T11:13:14.903Z,22.34
2017-08-06T11:14:25.200Z,22.49
2017-08-06T11:15:35.793Z,22.74
2017-08-06T11:16:45.776Z,22.76
2017-08-06T11:17:55.749Z,22.92
2017-08-06T11:19:06.056Z,23.23
2017-08-06T11:20:16.354Z,23.39
2017-08-06T11:21:26.592Z,23.04
2017-08-06T11:22:36.574Z,23.16
2017-08-06T11:23:46.552Z,23.32
2017-08-06T11:24:56.585Z,23.4
2017-08-06T11:26:06.901Z,23.58
2017-08-06T11:27:17.452Z,23.59
2017-08-06T11:28:27.429Z,23.32
2017-08-06T11:29:37.729Z,23.11
2017-08-06T11:30:47.711Z,22.83
2017-08-06T11:31:58.028Z,22.65
2017-08-06T11:33:08.611Z,22.52
2017-08-06T11:34:18.913Z,22.36
2017-08-06T11:35:29.212Z,22.14
2017-08-06T11:36:39.509Z,22.03
2017-08-06T11:37:49.807Z,22.15
2017-08-06T11:39:00.340Z,22.22
2017-08-06T11:40:10.321Z,22.25
2017-08-06T11:41:20.631Z,22.28
2017-08-06T11:42:30.926Z,22.36
2017-08-06T11:43:40.902Z,22.19
2017-08-06T11:44:51.129Z,21.99
2017-08-06T11:46:00.789Z,21.91
2017-08-06T11:47:11.102Z,22.15
2017-08-06T11:48:21.107Z,22.31
2017-08-06T11:49:31.398Z,22.56
2017-08-06T11:50:41.619Z,22.86
2017-08-06T11:51:51.612Z,23.01
2017-08-06T11:53:01.928Z,22.95
2017-08-06T11:54:12.221Z,23.06
2017-08-06T11:55:22.191Z,23.04
2017-08-06T11:56:32.754Z,22.95
2017-08-06T11:57:42.756Z,22.7
2017-08-06T11:58:52.739Z,22.36
2017-08-06T12:00:03.040Z,21.99
2017-08-06T12:01:13.336Z,21.77
2017-08-06T12:02:23.873Z,21.8
2017-08-06T12:03:33.531Z,21.89
2017-08-06T12:04:43.822Z,21.88
2017-08-06T12:05:54.112Z,21.89
2017-08-06T12:07:04.091Z,21.88
2017-08-06T12:08:14.311Z,22.08
2017-08-06T12:09:23.987Z,22.4
2017-08-06T12:10:34.263Z,22.31
2017-08-06T12:11:44.555Z,22.51
2017-08-06T12:12:54.886Z,22.71
2017-08-06T12:14:05.452Z,22.84
2017-08-06T12:15:15.737Z,22.99
2017-08-06T12:16:26.023Z,23.17
2017-08-06T12:17:35.707Z,23.26
2017-08-06T12:18:45.685Z,23.26
2017-08-06T12:19:56.219Z,23.62
2017-08-06T12:21:06.204Z,23.63
2017-08-06T12:22:16.185Z,23.32
2017-08-06T12:23:26.486Z,22.88
2017-08-06T12:24:36.797Z,22.78
2017-08-06T12:25:47.035Z,22.78
2017-08-06T12:26:57.323Z,22.76
2017-08-06T12:28:07.623Z,22.88
2017-08-06T12:29:17.927Z,23.04
2017-08-06T12:30:28.225Z,23.26
2017-08-06T12:31:38.778Z,23.32
2017-08-06T12:32:49.093Z,23.58
2017-08-06T12:33:59.082Z,23.99
2017-08-06T12:35:09.060Z,24.37
2017-08-06T12:36:19.352Z,24.59
2017-08-06T12:37:29.989Z,24.75
2017-08-06T12:38:39.973Z,24.65
2017-08-06T12:39:50.304Z,24.85
2017-08-06T12:40:59.967Z,25.09
2017-08-06T12:42:10.256Z,25.07
2017-08-06T12:43:20.814Z,25.16
2017-08-06T12:44:30.800Z,25.36
2017-08-06T12:45:41.117Z,25.49
2017-08-06T12:46:51.446Z,25.95
2017-08-06T12:48:01.782Z,26.63
2017-08-06T12:49:12.384Z,26.39
2017-08-06T12:50:22.673Z,26.23
2017-08-06T12:51:32.659Z,25.41
2017-08-06T12:52:42.364Z,24.84
2017-08-06T12:53:52.351Z,24.48
2017-08-06T12:55:02.949Z,24.29
2017-08-06T12:56:13.281Z,23.96
2017-08-06T12:57:23.262Z,23.94
2017-08-06T12:58:33.258Z,23.74
2017-08-06T12:59:43.528Z,23.86
2017-08-06T13:00:53.436Z,24.14
2017-08-06T13:02:03.770Z,24.36
2017-08-06T13:03:14.081Z,24.31
2017-08-06T13:04:24.386Z,24.22
2017-08-06T13:05:34.665Z,24.21
2017-08-06T13:06:45.267Z,24.18
2017-08-06T13:07:55.550Z,24.16
2017-08-06T13:09:05.536Z,24.24
2017-08-06T13:10:15.818Z,24.66
2017-08-06T13:11:26.123Z,25
2017-08-06T13:12:36.417Z,25.44
2017-08-06T13:13:46.737Z,25.59
2017-08-06T13:14:57.026Z,25.76
2017-08-06T13:16:07.311Z,25.86
2017-08-06T13:17:17.614Z,26.03
2017-08-06T13:18:28.200Z,26.18
2017-08-06T13:19:38.197Z,26.3
2017-08-06T13:20:48.485Z,26.15
2017-08-06T13:21:58.492Z,26.15
2017-08-06T13:23:08.790Z,26.42
2017-08-06T13:24:19.378Z,26.46
2017-08-06T13:25:29.667Z,25.85
2017-08-06T13:26:39.964Z,25.54
2017-08-06T13:27:50.271Z,25.54
2017-08-06T13:29:00.242Z,25.06
2017-08-06T13:30:10.905Z,24.69
2017-08-06T13:31:20.888Z,24.69
2017-08-06T13:32:31.194Z,24.71
2017-08-06T13:33:41.502Z,24.38
2017-08-06T13:34:51.504Z,24.34
2017-08-06T13:36:01.752Z,24.32
2017-08-06T13:37:12.062Z,24.16
2017-08-06T13:38:22.369Z,24.04
2017-08-06T13:39:32.669Z,24
2017-08-06T13:40:42.644Z,23.66
2017-08-06T13:41:52.891Z,23.49
2017-08-06T13:43:03.201Z,23.45
2017-08-06T13:44:13.503Z,23.55
2017-08-06T13:45:23.800Z,23.33
2017-08-06T13:46:33.783Z,23.04
2017-08-06T13:47:44.310Z,22.99
2017-08-06T13:48:54.288Z,22.99
2017-08-06T13:50:04.581Z,22.83
2017-08-06T13:51:14.571Z,22.84
2017-08-06T13:52:24.554Z,22.67
2017-08-06T13:53:35.137Z,22.61
2017-08-06T13:54:45.434Z,22.68
2017-08-06T13:55:55.707Z,22.52
2017-08-06T13:57:05.996Z,22.33
2017-08-06T13:58:16.305Z,22.34
2017-08-06T13:59:26.859Z,22.18
2017-08-06T14:00:37.167Z,22.04
2017-08-06T14:01:47.450Z,22.03
2017-08-06T14:02:57.728Z,22.19
2017-08-06T14:04:08.023Z,22.1
2017-08-06T14:05:18.559Z,22.15
2017-08-06T14:06:28.225Z,22.31
2017-08-06T14:07:37.906Z,22.36
2017-08-06T14:08:47.888Z,22.26
2017-08-06T14:09:58.172Z,22.15
2017-08-06T14:11:08.755Z,22.18
2017-08-06T14:12:19.058Z,22.31
2017-08-06T14:13:29.380Z,22.34
2017-08-06T14:14:39.649Z,22.52
2017-08-06T14:15:49.619Z,22.53
2017-08-06T14:17:00.207Z,22.67
2017-08-06T14:18:10.508Z,22.93
2017-08-06T14:19:20.480Z,23.2
2017-08-06T14:20:30.453Z,23.44
2017-08-06T14:21:40.782Z,23.73
2017-08-06T14:22:51.362Z,24.24
2017-08-06T14:24:01.360Z,24.47
2017-08-06T14:25:11.672Z,24.78
2017-08-06T14:26:21.957Z,24.66
2017-08-06T14:27:31.927Z,24.93
2017-08-06T14:28:42.184Z,24.92
2017-08-06T14:29:52.491Z,24.93
2017-08-06T14:31:02.767Z,24.92
2017-08-06T14:32:12.756Z,24.81
2017-08-06T14:33:22.765Z,24.97
2017-08-06T14:34:33.001Z,25.24
2017-08-06T14:35:43.291Z,25.01
2017-08-06T14:36:53.583Z,24.85
2017-08-06T14:38:03.262Z,24.65
2017-08-06T14:39:12.922Z,24.51
2017-08-06T14:40:23.225Z,24.41
2017-08-06T14:41:33.522Z,24.28
2017-08-06T14:42:43.510Z,24.14
2017-08-06T14:43:53.785Z,24.19
2017-08-06T14:45:03.771Z,24.28
2017-08-06T14:46:14.337Z,24.63
2017-08-06T14:47:24.677Z,24.89
2017-08-06T14:48:34.984Z,25.41
2017-08-06T14:49:45.309Z,25.62
2017-08-06T14:50:55.609Z,25.74
2017-08-06T14:52:06.213Z,25.31
2017-08-06T14:53:16.178Z,25.04
2017-08-06T14:54:26.488Z,24.85
2017-08-06T14:55:36.770Z,24.85
2017-08-06T14:56:46.460Z,25.03
2017-08-06T14:57:56.686Z,24.86
2017-08-06T14:59:06.670Z,24.82
2017-08-06T15:00:16.989Z,24.82
2017-08-06T15:01:26.980Z,25.03
2017-08-06T15:02:37.271Z,25.44
2017-08-06T15:03:47.858Z,25.62
2017-08-06T15:04:58.155Z,25.98
2017-08-06T15:06:08.458Z,26.34
2017-08-06T15:07:18.754Z,26.82
2017-08-06T15:08:29.067Z,26.96